sensor_id;sensor_type;location;lat;lon;timestamp;temperature;humidity
84272;SHT31;74614;50.032;19.566;2024-02-16T00:00:25;16.21;37.78
84272;SHT31;74614;50.032;19.566;2024-02-16T00:02:31;16.15;36.52
84272;SHT31;74614;50.032;19.566;2024-02-16T00:04:27;16.15;36.62
84272;SHT31;74614;50.032;19.566;2024-02-16T00:06:40;16.11;38.41
84272;SHT31;74614;50.032;19.566;2024-02-16T00:09:27;16.10;37.52
84272;SHT31;74614;50.032;19.566;2024-02-16T00:11:28;16.18;36.88
84272;SHT31;74614;50.032;19.566;2024-02-16T00:13:28;16.26;35.82
84272;SHT31;74614;50.032;19.566;2024-02-16T00:15:27;16.18;35.67
84272;SHT31;74614;50.032;19.566;2024-02-16T00:17:43;16.04;36.64
84272;SHT31;74614;50.032;19.566;2024-02-16T00:20:32;15.97;37.56
84272;SHT31;74614;50.032;19.566;2024-02-16T00:22:26;16.17;36.36
84272;SHT31;74614;50.032;19.566;2024-02-16T00:24:24;16.24;35.70
84272;SHT31;74614;50.032;19.566;2024-02-16T00:26:40;16.12;35.19
84272;SHT31;74614;50.032;19.566;2024-02-16T00:29:35;16.18;35.57
84272;SHT31;74614;50.032;19.566;2024-02-16T00:32:25;16.14;35.38
84272;SHT31;74614;50.032;19.566;2024-02-16T00:34:26;16.01;35.55
84272;SHT31;74614;50.032;19.566;2024-02-16T00:36:32;15.90;35.38
84272;SHT31;74614;50.032;19.566;2024-02-16T00:38:50;15.90;35.90
84272;SHT31;74614;50.032;19.566;2024-02-16T00:41:30;15.80;36.62
84272;SHT31;74614;50.032;19.566;2024-02-16T00:43:25;15.90;35.98
84272;SHT31;74614;50.032;19.566;2024-02-16T00:45:33;15.81;36.27
84272;SHT31;74614;50.032;19.566;2024-02-16T00:47:30;15.79;35.96
84272;SHT31;74614;50.032;19.566;2024-02-16T00:49:29;15.77;35.59
84272;SHT31;74614;50.032;19.566;2024-02-16T00:51:26;15.83;35.37
84272;SHT31;74614;50.032;19.566;2024-02-16T00:53:29;15.77;35.79
84272;SHT31;74614;50.032;19.566;2024-02-16T00:55:27;15.75;35.62
84272;SHT31;74614;50.032;19.566;2024-02-16T00:57:29;15.59;37.04
84272;SHT31;74614;50.032;19.566;2024-02-16T00:59:32;15.62;36.69
84272;SHT31;74614;50.032;19.566;2024-02-16T01:01:32;15.71;37.14
84272;SHT31;74614;50.032;19.566;2024-02-16T01:03:33;15.87;37.03
84272;SHT31;74614;50.032;19.566;2024-02-16T01:05:33;16.00;36.54
84272;SHT31;74614;50.032;19.566;2024-02-16T01:07:36;16.14;36.52
84272;SHT31;74614;50.032;19.566;2024-02-16T01:09:30;16.12;35.38
84272;SHT31;74614;50.032;19.566;2024-02-16T01:11:27;16.11;35.33
84272;SHT31;74614;50.032;19.566;2024-02-16T01:13:28;16.15;34.30
84272;SHT31;74614;50.032;19.566;2024-02-16T01:15:27;16.08;34.58
84272;SHT31;74614;50.032;19.566;2024-02-16T01:17:46;16.03;35.50
84272;SHT31;74614;50.032;19.566;2024-02-16T01:20:27;16.05;34.85
84272;SHT31;74614;50.032;19.566;2024-02-16T01:22:26;16.11;34.09
84272;SHT31;74614;50.032;19.566;2024-02-16T01:24:28;16.08;34.76
84272;SHT31;74614;50.032;19.566;2024-02-16T01:26:38;16.01;34.55
84272;SHT31;74614;50.032;19.566;2024-02-16T01:28:36;16.00;34.70
84272;SHT31;74614;50.032;19.566;2024-02-16T01:31:20;15.87;35.30
84272;SHT31;74614;50.032;19.566;2024-02-16T01:33:23;15.70;35.75
84272;SHT31;74614;50.032;19.566;2024-02-16T01:35:20;15.63;36.17
84272;SHT31;74614;50.032;19.566;2024-02-16T01:37:53;15.66;35.96
84272;SHT31;74614;50.032;19.566;2024-02-16T01:40:22;15.75;35.35
84272;SHT31;74614;50.032;19.566;2024-02-16T01:42:51;15.91;34.49
84272;SHT31;74614;50.032;19.566;2024-02-16T01:45:46;15.83;34.02
84272;SHT31;74614;50.032;19.566;2024-02-16T01:48:21;15.74;34.49
84272;SHT31;74614;50.032;19.566;2024-02-16T01:50:20;15.68;35.84
84272;SHT31;74614;50.032;19.566;2024-02-16T01:52:20;15.54;35.25
84272;SHT31;74614;50.032;19.566;2024-02-16T01:54:21;15.49;35.80
84272;SHT31;74614;50.032;19.566;2024-02-16T01:56:20;15.44;36.13
84272;SHT31;74614;50.032;19.566;2024-02-16T01:58:20;15.47;35.91
84272;SHT31;74614;50.032;19.566;2024-02-16T02:00:21;15.47;35.91
84272;SHT31;74614;50.032;19.566;2024-02-16T02:02:22;15.47;36.38
84272;SHT31;74614;50.032;19.566;2024-02-16T02:04:19;15.37;36.35
84272;SHT31;74614;50.032;19.566;2024-02-16T02:06:20;15.54;35.99
84272;SHT31;74614;50.032;19.566;2024-02-16T02:08:19;15.46;36.37
84272;SHT31;74614;50.032;19.566;2024-02-16T02:10:22;15.49;35.98
84272;SHT31;74614;50.032;19.566;2024-02-16T02:12:20;15.50;35.89
84272;SHT31;74614;50.032;19.566;2024-02-16T02:14:22;15.54;35.70
84272;SHT31;74614;50.032;19.566;2024-02-16T02:16:22;15.62;35.68
84272;SHT31;74614;50.032;19.566;2024-02-16T02:18:20;15.53;36.71
84272;SHT31;74614;50.032;19.566;2024-02-16T02:20:20;15.57;36.16
84272;SHT31;74614;50.032;19.566;2024-02-16T02:22:22;15.59;36.58
84272;SHT31;74614;50.032;19.566;2024-02-16T02:24:20;15.52;34.77
84272;SHT31;74614;50.032;19.566;2024-02-16T02:26:20;15.46;35.24
84272;SHT31;74614;50.032;19.566;2024-02-16T02:28:27;15.49;36.20
84272;SHT31;74614;50.032;19.566;2024-02-16T02:30:28;15.40;36.57
84272;SHT31;74614;50.032;19.566;2024-02-16T02:32:25;15.46;36.54
84272;SHT31;74614;50.032;19.566;2024-02-16T02:34:24;15.42;36.81
84272;SHT31;74614;50.032;19.566;2024-02-16T02:36:31;15.44;36.22
84272;SHT31;74614;50.032;19.566;2024-02-16T02:38:24;15.50;36.54
84272;SHT31;74614;50.032;19.566;2024-02-16T02:40:25;15.59;35.48
84272;SHT31;74614;50.032;19.566;2024-02-16T02:42:25;15.62;35.95
84272;SHT31;74614;50.032;19.566;2024-02-16T02:44:25;15.67;35.32
84272;SHT31;74614;50.032;19.566;2024-02-16T02:46:31;15.79;34.65
84272;SHT31;74614;50.032;19.566;2024-02-16T02:48:33;15.95;34.86
84272;SHT31;74614;50.032;19.566;2024-02-16T02:50:23;15.98;34.40
84272;SHT31;74614;50.032;19.566;2024-02-16T02:52:27;15.81;34.05
84272;SHT31;74614;50.032;19.566;2024-02-16T02:54:25;15.73;34.54
84272;SHT31;74614;50.032;19.566;2024-02-16T02:56:27;15.74;35.61
84272;SHT31;74614;50.032;19.566;2024-02-16T02:58:30;15.60;35.21
84272;SHT31;74614;50.032;19.566;2024-02-16T03:00:34;15.64;35.32
84272;SHT31;74614;50.032;19.566;2024-02-16T03:02:25;15.57;34.63
84272;SHT31;74614;50.032;19.566;2024-02-16T03:04:27;15.59;34.76
84272;SHT31;74614;50.032;19.566;2024-02-16T03:06:30;15.52;35.28
84272;SHT31;74614;50.032;19.566;2024-02-16T03:08:31;15.62;33.89
84272;SHT31;74614;50.032;19.566;2024-02-16T03:10:33;15.44;35.05
84272;SHT31;74614;50.032;19.566;2024-02-16T03:12:27;15.47;35.42
84272;SHT31;74614;50.032;19.566;2024-02-16T03:14:26;15.39;34.36
84272;SHT31;74614;50.032;19.566;2024-02-16T03:16:29;15.40;34.72
84272;SHT31;74614;50.032;19.566;2024-02-16T03:18:29;15.33;36.14
84272;SHT31;74614;50.032;19.566;2024-02-16T03:20:25;15.28;36.91
84272;SHT31;74614;50.032;19.566;2024-02-16T03:22:26;15.26;36.11
84272;SHT31;74614;50.032;19.566;2024-02-16T03:24:26;15.22;36.00
84272;SHT31;74614;50.032;19.566;2024-02-16T03:26:25;15.29;35.86
84272;SHT31;74614;50.032;19.566;2024-02-16T03:28:26;15.39;35.76
84272;SHT31;74614;50.032;19.566;2024-02-16T03:30:24;15.40;35.13
84272;SHT31;74614;50.032;19.566;2024-02-16T03:32:26;15.44;35.78
84272;SHT31;74614;50.032;19.566;2024-02-16T03:34:24;15.26;35.28
84272;SHT31;74614;50.032;19.566;2024-02-16T03:36:25;15.29;34.98
84272;SHT31;74614;50.032;19.566;2024-02-16T03:38:27;15.11;36.07
84272;SHT31;74614;50.032;19.566;2024-02-16T03:40:25;15.08;36.09
84272;SHT31;74614;50.032;19.566;2024-02-16T03:42:25;15.03;35.76
84272;SHT31;74614;50.032;19.566;2024-02-16T03:44:25;15.11;36.50
84272;SHT31;74614;50.032;19.566;2024-02-16T03:46:27;15.12;36.09
84272;SHT31;74614;50.032;19.566;2024-02-16T03:48:25;15.03;36.33
84272;SHT31;74614;50.032;19.566;2024-02-16T03:50:27;15.06;36.27
84272;SHT31;74614;50.032;19.566;2024-02-16T03:52:26;15.02;36.07
84272;SHT31;74614;50.032;19.566;2024-02-16T03:54:24;15.05;36.00
84272;SHT31;74614;50.032;19.566;2024-02-16T03:56:26;15.06;36.92
84272;SHT31;74614;50.032;19.566;2024-02-16T03:58:24;15.06;37.41
84272;SHT31;74614;50.032;19.566;2024-02-16T04:00:30;15.19;36.62
84272;SHT31;74614;50.032;19.566;2024-02-16T04:02:25;15.13;36.60
84272;SHT31;74614;50.032;19.566;2024-02-16T04:04:28;15.12;37.19
84272;SHT31;74614;50.032;19.566;2024-02-16T04:06:27;15.09;37.43
84272;SHT31;74614;50.032;19.566;2024-02-16T04:08:26;15.23;39.32
84272;SHT31;74614;50.032;19.566;2024-02-16T04:10:29;15.23;38.40
84272;SHT31;74614;50.032;19.566;2024-02-16T04:12:24;15.28;38.16
84272;SHT31;74614;50.032;19.566;2024-02-16T04:14:25;15.28;37.95
84272;SHT31;74614;50.032;19.566;2024-02-16T04:16:32;15.40;37.50
84272;SHT31;74614;50.032;19.566;2024-02-16T04:18:31;15.49;37.16
84272;SHT31;74614;50.032;19.566;2024-02-16T04:20:27;15.43;36.20
84272;SHT31;74614;50.032;19.566;2024-02-16T04:22:27;15.43;36.68
84272;SHT31;74614;50.032;19.566;2024-02-16T04:24:24;15.47;35.87
84272;SHT31;74614;50.032;19.566;2024-02-16T04:26:26;15.44;35.51
84272;SHT31;74614;50.032;19.566;2024-02-16T04:28:25;15.39;36.42
84272;SHT31;74614;50.032;19.566;2024-02-16T04:30:28;15.42;36.00
84272;SHT31;74614;50.032;19.566;2024-02-16T04:32:24;15.50;36.89
84272;SHT31;74614;50.032;19.566;2024-02-16T04:34:28;15.36;36.22
84272;SHT31;74614;50.032;19.566;2024-02-16T04:36:24;15.37;36.00
84272;SHT31;74614;50.032;19.566;2024-02-16T04:38:24;15.25;37.82
84272;SHT31;74614;50.032;19.566;2024-02-16T04:40:25;15.09;37.91
84272;SHT31;74614;50.032;19.566;2024-02-16T04:42:23;15.06;37.83
84272;SHT31;74614;50.032;19.566;2024-02-16T04:44:24;14.95;38.50
84272;SHT31;74614;50.032;19.566;2024-02-16T04:46:24;15.05;38.72
84272;SHT31;74614;50.032;19.566;2024-02-16T04:48:27;15.11;38.03
84272;SHT31;74614;50.032;19.566;2024-02-16T04:50:28;15.13;38.02
84272;SHT31;74614;50.032;19.566;2024-02-16T04:52:28;15.05;37.74
84272;SHT31;74614;50.032;19.566;2024-02-16T04:54:25;15.21;38.10
84272;SHT31;74614;50.032;19.566;2024-02-16T04:56:27;15.19;37.22
84272;SHT31;74614;50.032;19.566;2024-02-16T04:58:24;15.23;37.92
84272;SHT31;74614;50.032;19.566;2024-02-16T05:00:23;15.23;36.97
84272;SHT31;74614;50.032;19.566;2024-02-16T05:02:25;15.03;36.74
84272;SHT31;74614;50.032;19.566;2024-02-16T05:04:32;15.13;37.31
84272;SHT31;74614;50.032;19.566;2024-02-16T05:06:23;15.12;37.15
84272;SHT31;74614;50.032;19.566;2024-02-16T05:08:42;15.15;36.43
84272;SHT31;74614;50.032;19.566;2024-02-16T05:11:26;15.12;36.27
84272;SHT31;74614;50.032;19.566;2024-02-16T05:13:30;15.11;37.12
84272;SHT31;74614;50.032;19.566;2024-02-16T05:15:23;15.08;37.13
84272;SHT31;74614;50.032;19.566;2024-02-16T05:17:29;14.99;38.00
84272;SHT31;74614;50.032;19.566;2024-02-16T05:19:27;15.02;37.79
84272;SHT31;74614;50.032;19.566;2024-02-16T05:21:29;15.11;36.93
84272;SHT31;74614;50.032;19.566;2024-02-16T05:23:25;15.25;37.58
84272;SHT31;74614;50.032;19.566;2024-02-16T05:25:27;15.23;37.47
84272;SHT31;74614;50.032;19.566;2024-02-16T05:27:24;15.22;38.01
84272;SHT31;74614;50.032;19.566;2024-02-16T05:29:31;15.29;36.73
84272;SHT31;74614;50.032;19.566;2024-02-16T05:31:28;15.28;37.70
84272;SHT31;74614;50.032;19.566;2024-02-16T05:33:31;15.26;37.13
84272;SHT31;74614;50.032;19.566;2024-02-16T05:35:30;15.15;37.30
84272;SHT31;74614;50.032;19.566;2024-02-16T05:37:27;15.15;37.19
84272;SHT31;74614;50.032;19.566;2024-02-16T05:39:37;15.11;36.34
84272;SHT31;74614;50.032;19.566;2024-02-16T05:41:28;15.06;36.19
84272;SHT31;74614;50.032;19.566;2024-02-16T05:43:29;15.12;35.78
84272;SHT31;74614;50.032;19.566;2024-02-16T05:45:27;14.95;36.23
84272;SHT31;74614;50.032;19.566;2024-02-16T05:47:28;15.02;37.03
84272;SHT31;74614;50.032;19.566;2024-02-16T05:49:34;15.16;36.94
84272;SHT31;74614;50.032;19.566;2024-02-16T05:51:23;15.08;36.14
84272;SHT31;74614;50.032;19.566;2024-02-16T05:53:34;15.15;35.70
84272;SHT31;74614;50.032;19.566;2024-02-16T05:56:27;15.29;35.28
84272;SHT31;74614;50.032;19.566;2024-02-16T05:58:25;15.21;36.13
84272;SHT31;74614;50.032;19.566;2024-02-16T06:00:31;15.12;35.99
84272;SHT31;74614;50.032;19.566;2024-02-16T06:02:31;15.19;36.05
84272;SHT31;74614;50.032;19.566;2024-02-16T06:04:23;15.22;36.66
84272;SHT31;74614;50.032;19.566;2024-02-16T06:06:26;15.28;36.47
84272;SHT31;74614;50.032;19.566;2024-02-16T06:08:24;15.29;37.21
84272;SHT31;74614;50.032;19.566;2024-02-16T06:10:25;15.25;35.97
84272;SHT31;74614;50.032;19.566;2024-02-16T06:12:24;15.25;36.97
84272;SHT31;74614;50.032;19.566;2024-02-16T06:14:29;15.26;36.10
84272;SHT31;74614;50.032;19.566;2024-02-16T06:16:28;15.25;36.96
84272;SHT31;74614;50.032;19.566;2024-02-16T06:18:25;15.06;36.43
84272;SHT31;74614;50.032;19.566;2024-02-16T06:20:27;14.98;36.19
84272;SHT31;74614;50.032;19.566;2024-02-16T06:22:24;15.06;37.19
84272;SHT31;74614;50.032;19.566;2024-02-16T06:24:31;15.12;37.14
84272;SHT31;74614;50.032;19.566;2024-02-16T06:26:26;15.21;37.77
84272;SHT31;74614;50.032;19.566;2024-02-16T06:39:02;15.39;39.03
84272;SHT31;74614;50.032;19.566;2024-02-16T06:39:14;15.39;39.03
84272;SHT31;74614;50.032;19.566;2024-02-16T06:39:16;15.39;39.03
84272;SHT31;74614;50.032;19.566;2024-02-16T06:39:19;15.39;39.03
84272;SHT31;74614;50.032;19.566;2024-02-16T06:41:28;15.25;38.69
84272;SHT31;74614;50.032;19.566;2024-02-16T06:43:26;15.13;40.06
84272;SHT31;74614;50.032;19.566;2024-02-16T06:45:26;14.99;40.43
84272;SHT31;74614;50.032;19.566;2024-02-16T06:47:32;14.93;41.29
84272;SHT31;74614;50.032;19.566;2024-02-16T06:49:27;14.96;41.22
84272;SHT31;74614;50.032;19.566;2024-02-16T06:51:29;14.91;41.29
84272;SHT31;74614;50.032;19.566;2024-02-16T06:53:26;14.98;41.59
84272;SHT31;74614;50.032;19.566;2024-02-16T06:55:29;15.11;41.28
84272;SHT31;74614;50.032;19.566;2024-02-16T06:57:27;15.35;40.92
84272;SHT31;74614;50.032;19.566;2024-02-16T06:59:26;15.46;40.72
84272;SHT31;74614;50.032;19.566;2024-02-16T07:01:34;15.54;41.07
84272;SHT31;74614;50.032;19.566;2024-02-16T07:03:26;15.62;41.22
84272;SHT31;74614;50.032;19.566;2024-02-16T07:05:32;15.74;41.27
84272;SHT31;74614;50.032;19.566;2024-02-16T07:07:32;15.95;40.66
84272;SHT31;74614;50.032;19.566;2024-02-16T07:09:31;15.98;40.02
84272;SHT31;74614;50.032;19.566;2024-02-16T07:11:29;15.98;40.39
84272;SHT31;74614;50.032;19.566;2024-02-16T07:13:29;16.03;40.60
84272;SHT31;74614;50.032;19.566;2024-02-16T07:15:33;16.10;40.42
84272;SHT31;74614;50.032;19.566;2024-02-16T07:17:26;16.14;40.15
84272;SHT31;74614;50.032;19.566;2024-02-16T07:19:27;16.15;40.57
84272;SHT31;74614;50.032;19.566;2024-02-16T07:21:33;16.28;40.16
84272;SHT31;74614;50.032;19.566;2024-02-16T07:23:35;16.32;40.64
84272;SHT31;74614;50.032;19.566;2024-02-16T07:26:35;16.42;39.77
84272;SHT31;74614;50.032;19.566;2024-02-16T07:29:28;16.69;39.81
84272;SHT31;74614;50.032;19.566;2024-02-16T07:31:30;16.69;40.11
84272;SHT31;74614;50.032;19.566;2024-02-16T07:33:26;16.83;39.40
84272;SHT31;74614;50.032;19.566;2024-02-16T07:35:26;16.84;39.27
84272;SHT31;74614;50.032;19.566;2024-02-16T07:37:26;16.79;39.44
84272;SHT31;74614;50.032;19.566;2024-02-16T07:39:30;16.79;39.61
84272;SHT31;74614;50.032;19.566;2024-02-16T07:41:25;16.68;40.14
84272;SHT31;74614;50.032;19.566;2024-02-16T07:43:31;16.93;40.89
84272;SHT31;74614;50.032;19.566;2024-02-16T07:45:26;17.21;39.37
84272;SHT31;74614;50.032;19.566;2024-02-16T07:47:26;17.43;39.01
84272;SHT31;74614;50.032;19.566;2024-02-16T07:49:26;17.65;38.37
84272;SHT31;74614;50.032;19.566;2024-02-16T07:51:26;17.63;38.33
84272;SHT31;74614;50.032;19.566;2024-02-16T07:53:26;17.64;38.21
84272;SHT31;74614;50.032;19.566;2024-02-16T07:55:30;17.54;38.68
84272;SHT31;74614;50.032;19.566;2024-02-16T07:57:30;17.55;39.07
84272;SHT31;74614;50.032;19.566;2024-02-16T07:59:29;17.60;38.93
84272;SHT31;74614;50.032;19.566;2024-02-16T08:01:32;17.88;38.84
84272;SHT31;74614;50.032;19.566;2024-02-16T08:03:29;17.99;38.49
84272;SHT31;74614;50.032;19.566;2024-02-16T08:05:34;17.96;38.07
84272;SHT31;74614;50.032;19.566;2024-02-16T08:07:26;18.15;37.75
84272;SHT31;74614;50.032;19.566;2024-02-16T08:09:29;18.02;38.05
84272;SHT31;74614;50.032;19.566;2024-02-16T08:11:27;17.96;38.06
84272;SHT31;74614;50.032;19.566;2024-02-16T08:13:28;18.15;37.78
84272;SHT31;74614;50.032;19.566;2024-02-16T08:15:32;18.26;38.13
84272;SHT31;74614;50.032;19.566;2024-02-16T08:17:28;18.57;37.03
84272;SHT31;74614;50.032;19.566;2024-02-16T08:19:34;18.84;37.50
84272;SHT31;74614;50.032;19.566;2024-02-16T08:21:29;18.94;36.42
84272;SHT31;74614;50.032;19.566;2024-02-16T08:23:27;18.85;38.47
84272;SHT31;74614;50.032;19.566;2024-02-16T08:25:30;18.94;36.31
84272;SHT31;74614;50.032;19.566;2024-02-16T08:27:28;18.80;36.46
84272;SHT31;74614;50.032;19.566;2024-02-16T08:29:28;18.75;37.31
84272;SHT31;74614;50.032;19.566;2024-02-16T08:31:32;18.77;37.43
84272;SHT31;74614;50.032;19.566;2024-02-16T08:33:42;18.87;37.15
84272;SHT31;74614;50.032;19.566;2024-02-16T08:36:39;19.11;36.65
84272;SHT31;74614;50.032;19.566;2024-02-16T08:38:32;19.16;37.09
84272;SHT31;74614;50.032;19.566;2024-02-16T08:40:41;19.28;35.96
84272;SHT31;74614;50.032;19.566;2024-02-16T08:42:33;19.25;36.65
84272;SHT31;74614;50.032;19.566;2024-02-16T08:44:28;19.32;36.41
84272;SHT31;74614;50.032;19.566;2024-02-16T08:46:35;19.36;35.92
84272;SHT31;74614;50.032;19.566;2024-02-16T08:48:30;19.38;36.10
84272;SHT31;74614;50.032;19.566;2024-02-16T08:50:37;19.54;37.16
84272;SHT31;74614;50.032;19.566;2024-02-16T08:52:34;19.51;36.16
84272;SHT31;74614;50.032;19.566;2024-02-16T08:54:34;19.59;36.47
84272;SHT31;74614;50.032;19.566;2024-02-16T08:56:31;19.62;37.23
84272;SHT31;74614;50.032;19.566;2024-02-16T08:58:32;19.88;35.92
84272;SHT31;74614;50.032;19.566;2024-02-16T09:00:33;19.96;36.22
84272;SHT31;74614;50.032;19.566;2024-02-16T09:02:36;20.17;35.16
84272;SHT31;74614;50.032;19.566;2024-02-16T09:05:32;20.37;34.85
84272;SHT31;74614;50.032;19.566;2024-02-16T09:07:29;20.61;35.12
84272;SHT31;74614;50.032;19.566;2024-02-16T09:09:43;20.64;34.41
84272;SHT31;74614;50.032;19.566;2024-02-16T09:11:38;20.55;34.38
84272;SHT31;74614;50.032;19.566;2024-02-16T09:14:33;20.57;35.00
84272;SHT31;74614;50.032;19.566;2024-02-16T09:16:30;20.35;34.29
84272;SHT31;74614;50.032;19.566;2024-02-16T09:16:30;20.48;34.32
84272;SHT31;74614;50.032;19.566;2024-02-16T09:18:43;20.55;34.85
84272;SHT31;74614;50.032;19.566;2024-02-16T09:21:48;20.62;34.60
84272;SHT31;74614;50.032;19.566;2024-02-16T09:24:26;20.85;34.66
84272;SHT31;74614;50.032;19.566;2024-02-16T09:26:39;20.98;34.20
84272;SHT31;74614;50.032;19.566;2024-02-16T09:29:28;21.16;33.73
84272;SHT31;74614;50.032;19.566;2024-02-16T09:31:39;21.27;34.23
84272;SHT31;74614;50.032;19.566;2024-02-16T09:34:29;21.33;34.27
84272;SHT31;74614;50.032;19.566;2024-02-16T09:36:29;21.36;33.21
84272;SHT31;74614;50.032;19.566;2024-02-16T09:38:26;21.42;33.67
84272;SHT31;74614;50.032;19.566;2024-02-16T09:40:31;21.58;33.30
84272;SHT31;74614;50.032;19.566;2024-02-16T09:42:34;21.50;32.89
84272;SHT31;74614;50.032;19.566;2024-02-16T09:45:21;21.23;33.32
84272;SHT31;74614;50.032;19.566;2024-02-16T09:47:27;21.22;33.28
84272;SHT31;74614;50.032;19.566;2024-02-16T09:50:27;21.23;33.39
84272;SHT31;74614;50.032;19.566;2024-02-16T09:52:29;21.25;33.76
84272;SHT31;74614;50.032;19.566;2024-02-16T09:54:27;21.44;33.22
84272;SHT31;74614;50.032;19.566;2024-02-16T09:56:28;21.50;33.07
84272;SHT31;74614;50.032;19.566;2024-02-16T09:58:26;21.66;32.78
84272;SHT31;74614;50.032;19.566;2024-02-16T10:00:27;21.66;33.29
84272;SHT31;74614;50.032;19.566;2024-02-16T10:02:39;21.57;33.48
84272;SHT31;74614;50.032;19.566;2024-02-16T10:05:21;21.70;32.85
84272;SHT31;74614;50.032;19.566;2024-02-16T10:07:32;21.84;33.22
84272;SHT31;74614;50.032;19.566;2024-02-16T10:10:29;22.02;32.61
84272;SHT31;74614;50.032;19.566;2024-02-16T10:12:28;22.18;31.56
84272;SHT31;74614;50.032;19.566;2024-02-16T10:14:28;22.17;32.24
84272;SHT31;74614;50.032;19.566;2024-02-16T10:16:27;22.17;32.42
84272;SHT31;74614;50.032;19.566;2024-02-16T10:18:34;22.23;32.01
84272;SHT31;74614;50.032;19.566;2024-02-16T10:20:27;22.14;32.21
84272;SHT31;74614;50.032;19.566;2024-02-16T10:22:29;22.31;31.90
84272;SHT31;74614;50.032;19.566;2024-02-16T10:24:26;22.15;32.24
84272;SHT31;74614;50.032;19.566;2024-02-16T10:26:33;22.18;32.18
84272;SHT31;74614;50.032;19.566;2024-02-16T10:28:39;22.35;32.34
84272;SHT31;74614;50.032;19.566;2024-02-16T10:31:37;22.32;32.35
84272;SHT31;74614;50.032;19.566;2024-02-16T10:33:28;22.48;32.13
84272;SHT31;74614;50.032;19.566;2024-02-16T10:35:36;22.63;31.13
84272;SHT31;74614;50.032;19.566;2024-02-16T10:37:31;22.80;32.01
84272;SHT31;74614;50.032;19.566;2024-02-16T10:39:39;22.93;32.03
84272;SHT31;74614;50.032;19.566;2024-02-16T10:42:28;23.01;31.42
84272;SHT31;74614;50.032;19.566;2024-02-16T10:44:28;23.04;31.29
84272;SHT31;74614;50.032;19.566;2024-02-16T10:46:31;23.17;30.78
84272;SHT31;74614;50.032;19.566;2024-02-16T10:48:36;23.00;30.78
84272;SHT31;74614;50.032;19.566;2024-02-16T10:50:32;22.92;31.28
84272;SHT31;74614;50.032;19.566;2024-02-16T10:52:28;22.77;31.72
84272;SHT31;74614;50.032;19.566;2024-02-16T10:54:40;22.66;31.20
84272;SHT31;74614;50.032;19.566;2024-02-16T10:57:23;22.66;31.16
84272;SHT31;74614;50.032;19.566;2024-02-16T10:59:26;22.86;32.24
84272;SHT31;74614;50.032;19.566;2024-02-16T11:02:32;23.24;31.59
84272;SHT31;74614;50.032;19.566;2024-02-16T11:04:37;23.31;30.90
84272;SHT31;74614;50.032;19.566;2024-02-16T11:07:28;23.34;31.02
84272;SHT31;74614;50.032;19.566;2024-02-16T11:10:28;23.34;30.59
84272;SHT31;74614;50.032;19.566;2024-02-16T11:12:34;23.40;30.29
84272;SHT31;74614;50.032;19.566;2024-02-16T11:14:38;23.44;31.32
84272;SHT31;74614;50.032;19.566;2024-02-16T11:17:28;23.48;31.28
84272;SHT31;74614;50.032;19.566;2024-02-16T11:19:36;23.34;31.47
84272;SHT31;74614;50.032;19.566;2024-02-16T11:22:28;23.51;31.36
84272;SHT31;74614;50.032;19.566;2024-02-16T11:24:34;23.50;30.72
84272;SHT31;74614;50.032;19.566;2024-02-16T11:26:26;23.41;30.95
84272;SHT31;74614;50.032;19.566;2024-02-16T11:28:33;23.71;31.13
84272;SHT31;74614;50.032;19.566;2024-02-16T11:30:28;23.65;30.60
84272;SHT31;74614;50.032;19.566;2024-02-16T11:32:32;23.86;30.20
84272;SHT31;74614;50.032;19.566;2024-02-16T11:34:30;23.98;30.24
84272;SHT31;74614;50.032;19.566;2024-02-16T11:36:38;23.94;29.61
84272;SHT31;74614;50.032;19.566;2024-02-16T11:39:28;24.10;29.50
84272;SHT31;74614;50.032;19.566;2024-02-16T11:42:29;24.09;30.05
84272;SHT31;74614;50.032;19.566;2024-02-16T11:44:30;24.02;29.56
84272;SHT31;74614;50.032;19.566;2024-02-16T11:46:28;24.13;30.14
84272;SHT31;74614;50.032;19.566;2024-02-16T11:48:30;24.23;30.76
84272;SHT31;74614;50.032;19.566;2024-02-16T11:50:30;24.34;29.47
84272;SHT31;74614;50.032;19.566;2024-02-16T11:52:30;24.54;29.49
84272;SHT31;74614;50.032;19.566;2024-02-16T11:54:30;24.66;30.00
84272;SHT31;74614;50.032;19.566;2024-02-16T11:56:30;24.77;29.52
84272;SHT31;74614;50.032;19.566;2024-02-16T11:58:30;24.95;29.15
84272;SHT31;74614;50.032;19.566;2024-02-16T12:00:28;25.03;28.48
84272;SHT31;74614;50.032;19.566;2024-02-16T12:02:30;24.77;28.33
84272;SHT31;74614;50.032;19.566;2024-02-16T12:04:29;24.63;28.56
84272;SHT31;74614;50.032;19.566;2024-02-16T12:06:29;24.53;29.14
84272;SHT31;74614;50.032;19.566;2024-02-16T12:08:34;24.61;28.58
84272;SHT31;74614;50.032;19.566;2024-02-16T12:10:30;24.46;29.58
84272;SHT31;74614;50.032;19.566;2024-02-16T12:12:28;24.43;29.41
84272;SHT31;74614;50.032;19.566;2024-02-16T12:14:27;24.37;29.85
84272;SHT31;74614;50.032;19.566;2024-02-16T12:16:37;24.40;29.02
84272;SHT31;74614;50.032;19.566;2024-02-16T12:18:33;24.40;29.35
84272;SHT31;74614;50.032;19.566;2024-02-16T12:20:30;24.49;29.68
84272;SHT31;74614;50.032;19.566;2024-02-16T12:22:29;24.46;29.78
84272;SHT31;74614;50.032;19.566;2024-02-16T12:24:28;24.63;29.24
84272;SHT31;74614;50.032;19.566;2024-02-16T12:26:27;24.67;29.57
84272;SHT31;74614;50.032;19.566;2024-02-16T12:28:31;24.78;29.95
84272;SHT31;74614;50.032;19.566;2024-02-16T12:30:32;24.91;28.24
84272;SHT31;74614;50.032;19.566;2024-02-16T12:32:29;24.68;28.65
84272;SHT31;74614;50.032;19.566;2024-02-16T12:34:29;24.60;29.73
84272;SHT31;74614;50.032;19.566;2024-02-16T12:36:31;24.64;29.78
84272;SHT31;74614;50.032;19.566;2024-02-16T12:38:32;24.61;28.61
84272;SHT31;74614;50.032;19.566;2024-02-16T12:40:28;24.56;29.36
84272;SHT31;74614;50.032;19.566;2024-02-16T12:42:28;24.57;29.44
84272;SHT31;74614;50.032;19.566;2024-02-16T12:44:31;24.74;29.12
84272;SHT31;74614;50.032;19.566;2024-02-16T12:46:27;24.71;28.87
84272;SHT31;74614;50.032;19.566;2024-02-16T12:48:30;24.85;29.70
84272;SHT31;74614;50.032;19.566;2024-02-16T12:50:33;24.84;28.61
84272;SHT31;74614;50.032;19.566;2024-02-16T12:52:27;24.84;28.05
84272;SHT31;74614;50.032;19.566;2024-02-16T12:54:39;24.74;28.59
84272;SHT31;74614;50.032;19.566;2024-02-16T12:57:33;24.73;28.81
84272;SHT31;74614;50.032;19.566;2024-02-16T12:59:39;24.73;28.45
84272;SHT31;74614;50.032;19.566;2024-02-16T13:02:28;24.77;29.36
84272;SHT31;74614;50.032;19.566;2024-02-16T13:04:30;24.88;28.61